Terminal Aerodrome Forecast
Issued by NWS

Home | Current Version | Previous Version | Text Only | Print | Product List | Glossary On
Versions: 1 2 3 4 5 6 7 8 9 10 11 12 13 14
427
FTAK31 PAJN 241728
TAFAGY
TAF
PAGY 241728Z 2418/2518 21011KT P6SM FEW015 OVC050
     FM242100 22012KT P6SM OVC050
      TEMPO 2422/2502 21012G20KT
     FM250600 22005KT P6SM OVC050
      AMD LTD TO CLD VIS AND WIND=

USA.gov is the U.S. government's official web portal to all federal, state and local government web resources and services.